^^
Your Local Weather - Clay, NY Station Historical Data
Daily Summary for October 30, 2017 Units:  English    Metric   Both
« Previous Day
Next Day »
Daily Weekly Monthly Yearly Custom
  High: Low: Average:
Temperature: 53.2 °F 43.2 °F 46.2 °F
Dew Point: 45.5 °F 28.0 °F 38.9 °F
Humidity: 94% 39% 77%
Wind Speed: 7.0mph 1.0mph 4.2mph
Wind Gust: 22.0mph - -
Wind- - West
Pressure: 29.69 in 29.01 in -
Precipitation: 1.54 in    
Historical Graphs
 
 
Tabular Data for October 30, 2017
Time Temperature Dew Point Pressure Wind Wind Speed Wind Gust Humidity Rainfall Rate (Hourly) solar
00:02 47.1 °F 45.5 °F 29.18 in NW 3.0 mph 3.0 mph 94% 0.16 in 0 W/m2
00:08 47.0 °F 45.4 °F 29.18 in NNW 3.0 mph 7.0 mph 94% 0.15 in 0 W/m2
00:14 47.0 °F 45.4 °F 29.17 in NW 3.0 mph 6.0 mph 94% 0.17 in 0 W/m2
00:20 47.1 °F 45.5 °F 29.15 in NW 3.0 mph 3.0 mph 94% 0.12 in 0 W/m2
00:26 47.0 °F 45.4 °F 29.14 in North 3.0 mph 8.0 mph 94% 0.15 in 0 W/m2
00:32 46.9 °F 45.3 °F 29.14 in NW 4.0 mph 8.0 mph 94% 0.19 in 0 W/m2
00:38 46.9 °F 45.3 °F 29.12 in NW 4.0 mph 8.0 mph 94% 0.17 in 0 W/m2
00:44 46.8 °F 45.2 °F 29.12 in NW 3.0 mph 3.0 mph 94% 0.17 in 0 W/m2
00:50 46.7 °F 45.1 °F 29.11 in NW 2.0 mph 2.0 mph 94% 0.20 in 0 W/m2
00:56 46.6 °F 45.0 °F 29.10 in NW 2.0 mph 2.0 mph 94% 0.15 in 0 W/m2
01:02 46.5 °F 44.9 °F 29.08 in NW 3.0 mph 4.0 mph 94% 0.37 in 0 W/m2
01:08 46.5 °F 44.9 °F 29.07 in NW 3.0 mph 4.0 mph 94% 0.23 in 0 W/m2
01:14 46.5 °F 44.9 °F 29.07 in NW 4.0 mph 4.0 mph 94% 0.15 in 0 W/m2
01:20 46.4 °F 44.8 °F 29.07 in NNW 3.0 mph 3.0 mph 94% 0.40 in 0 W/m2
01:26 46.4 °F 44.8 °F 29.06 in WNW 2.0 mph 4.0 mph 94% 0.42 in 0 W/m2
01:32 46.3 °F 44.7 °F 29.06 in WNW 3.0 mph 3.0 mph 94% 0.30 in 0 W/m2
01:38 46.3 °F 44.7 °F 29.05 in WNW 3.0 mph 3.0 mph 94% 0.42 in 0 W/m2
01:44 46.2 °F 44.6 °F 29.04 in NW 3.0 mph 4.0 mph 94% 0.42 in 0 W/m2
01:50 46.3 °F 44.7 °F 29.04 in NW 3.0 mph 3.0 mph 94% 0.43 in 0 W/m2
01:56 46.3 °F 44.7 °F 29.03 in WNW 3.0 mph 3.0 mph 94% 0.30 in 0 W/m2
02:02 46.3 °F 44.7 °F 29.03 in WNW 3.0 mph 9.0 mph 94% 0.38 in 0 W/m2
02:08 46.3 °F 44.7 °F 29.02 in WNW 3.0 mph 9.0 mph 94% 0.38 in 0 W/m2
02:14 46.3 °F 44.7 °F 29.02 in WNW 3.0 mph 4.0 mph 94% 0.50 in 0 W/m2
02:20 46.2 °F 44.6 °F 29.02 in WNW 3.0 mph 3.0 mph 94% 1.10 in 0 W/m2
02:26 46.1 °F 44.5 °F 29.01 in WNW 3.0 mph 9.0 mph 94% 0.51 in 0 W/m2
02:32 46.0 °F 44.4 °F 29.01 in WNW 3.0 mph 3.0 mph 94% 0.34 in 0 W/m2
02:38 45.9 °F 44.3 °F 29.01 in West 3.0 mph 4.0 mph 94% 0.31 in 0 W/m2
02:44 45.8 °F 44.2 °F 29.01 in NW 2.0 mph 3.0 mph 94% 0.40 in 0 W/m2
02:50 45.6 °F 44.0 °F 29.01 in WNW 3.0 mph 3.0 mph 94% 0.32 in 0 W/m2
02:56 45.5 °F 43.9 °F 29.01 in West 3.0 mph 5.0 mph 94% 0.39 in 0 W/m2
03:02 45.4 °F 43.8 °F 29.01 in West 4.0 mph 7.0 mph 94% 0.55 in 0 W/m2
03:08 45.4 °F 43.8 °F 29.01 in WNW 4.0 mph 7.0 mph 94% 0.30 in 0 W/m2
03:14 45.4 °F 43.8 °F 29.01 in NW 3.0 mph 5.0 mph 94% 0.26 in 0 W/m2
03:20 45.4 °F 43.8 °F 29.01 in WNW 3.0 mph 3.0 mph 94% 0.21 in 0 W/m2
03:26 45.4 °F 43.8 °F 29.01 in NW 3.0 mph 7.0 mph 94% 0.21 in 0 W/m2
03:32 45.4 °F 43.8 °F 29.02 in WNW 4.0 mph 4.0 mph 94% 0.15 in 0 W/m2
03:38 45.4 °F 43.8 °F 29.02 in West 4.0 mph 6.0 mph 94% 0.18 in 0 W/m2
03:44 45.4 °F 43.8 °F 29.03 in NW 3.0 mph 4.0 mph 94% 0.17 in 0 W/m2
03:50 45.4 °F 43.8 °F 29.03 in WNW 3.0 mph 5.0 mph 94% 0.15 in 0 W/m2
03:56 45.5 °F 43.9 °F 29.03 in WNW 3.0 mph 5.0 mph 94% 0.19 in 0 W/m2
04:02 45.6 °F 44.0 °F 29.03 in WNW 3.0 mph 4.0 mph 94% 0.11 in 0 W/m2
04:08 45.6 °F 44.0 °F 29.03 in WNW 3.0 mph 5.0 mph 94% 0.12 in 0 W/m2
04:14 45.6 °F 44.0 °F 29.04 in WNW 3.0 mph 6.0 mph 94% 0.07 in 0 W/m2
04:20 45.7 °F 44.1 °F 29.04 in WNW 3.0 mph 6.0 mph 94% 0.12 in 0 W/m2
04:26 45.7 °F 44.1 °F 29.05 in West 3.0 mph 6.0 mph 94% 0.09 in 0 W/m2
04:32 45.8 °F 44.2 °F 29.05 in WNW 3.0 mph 3.0 mph 94% 0.15 in 0 W/m2
04:38 45.8 °F 44.2 °F 29.05 in West 2.0 mph 3.0 mph 94% 0.10 in 0 W/m2
04:44 45.8 °F 44.2 °F 29.05 in West 2.0 mph 5.0 mph 94% 0.09 in 0 W/m2
04:50 46.0 °F 44.4 °F 29.06 in WNW 2.0 mph 3.0 mph 94% 0.07 in 0 W/m2
04:56 46.0 °F 44.4 °F 29.06 in West 3.0 mph 7.0 mph 94% 0.07 in 0 W/m2
05:02 45.9 °F 44.3 °F 29.06 in WSW 3.0 mph 3.0 mph 94% 0.08 in 0 W/m2
05:08 45.8 °F 43.9 °F 29.06 in WNW 2.0 mph 4.0 mph 93% 0.10 in 0 W/m2
05:14 45.6 °F 43.7 °F 29.07 in West 3.0 mph 4.0 mph 93% 0.06 in 0 W/m2
05:20 45.5 °F 43.6 °F 29.08 in West 3.0 mph 3.0 mph 93% 0.04 in 0 W/m2
05:26 45.4 °F 43.5 °F 29.08 in WNW 4.0 mph 5.0 mph 93% 0.04 in 0 W/m2
05:32 45.3 °F 43.4 °F 29.08 in West 3.0 mph 3.0 mph 93% 0.13 in 0 W/m2
05:38 45.3 °F 43.4 °F 29.09 in West 3.0 mph 3.0 mph 93% 0.11 in 0 W/m2
05:44 45.2 °F 43.3 °F 29.09 in WSW 2.0 mph 4.0 mph 93% 0.14 in 0 W/m2
05:50 45.1 °F 43.2 °F 29.09 in WSW 2.0 mph 2.0 mph 93% 0.09 in 0 W/m2
05:56 45.0 °F 43.1 °F 29.09 in West 3.0 mph 3.0 mph 93% 0.13 in 0 W/m2
06:02 44.7 °F 42.8 °F 29.09 in West 4.0 mph 6.0 mph 93% 0.10 in 0 W/m2
06:08 44.5 °F 42.6 °F 29.09 in West 4.0 mph 6.0 mph 93% 0.11 in 0 W/m2
06:14 44.5 °F 42.6 °F 29.10 in SW 4.0 mph 5.0 mph 93% 0.13 in 0 W/m2
06:20 44.4 °F 42.5 °F 29.10 in West 4.0 mph 4.0 mph 93% 0.10 in 0 W/m2
06:26 44.3 °F 42.1 °F 29.11 in West 4.0 mph 7.0 mph 92% 0.07 in 0 W/m2
06:32 44.3 °F 42.1 °F 29.11 in WNW 4.0 mph 9.0 mph 92% 0.10 in 0 W/m2
06:38 44.2 °F 42.0 °F 29.12 in WNW 4.0 mph 13.0 mph 92% 0.07 in 0 W/m2
06:44 44.1 °F 41.9 °F 29.12 in WNW 4.0 mph 7.0 mph 92% 0.09 in 0 W/m2
06:50 44.0 °F 41.8 °F 29.13 in West 4.0 mph 4.0 mph 92% 0.09 in 0 W/m2
06:56 44.0 °F 41.8 °F 29.14 in WNW 3.0 mph 8.0 mph 92% 0.07 in 0 W/m2
07:02 43.8 °F 41.3 °F 29.14 in WNW 4.0 mph 6.0 mph 91% 0.06 in 0 W/m2
07:08 43.7 °F 41.2 °F 29.14 in WNW 4.0 mph 6.0 mph 91% 0.05 in 0 W/m2
07:14 43.6 °F 41.1 °F 29.14 in NW 6.0 mph 7.0 mph 91% 0.05 in 0 W/m2
07:20 43.5 °F 40.8 °F 29.16 in NW 5.0 mph 6.0 mph 90% 0.04 in 0 W/m2
07:26 43.4 °F 40.7 °F 29.16 in NW 4.0 mph 9.0 mph 90% 0.00 in 0 W/m2
07:32 43.3 °F 40.6 °F 29.17 in West 5.0 mph 5.0 mph 90% 0.00 in 0 W/m2
07:38 43.4 °F 40.7 °F 29.18 in WNW 6.0 mph 19.0 mph 90% 0.00 in 0 W/m2
07:44 43.3 °F 40.3 °F 29.18 in WNW 6.0 mph 7.0 mph 89% 0.00 in 0 W/m2
07:50 43.4 °F 40.4 °F 29.19 in WNW 5.0 mph 5.0 mph 89% 0.00 in 0 W/m2
07:56 43.3 °F 40.3 °F 29.19 in WNW 5.0 mph 6.0 mph 89% 0.00 in 0 W/m2
08:02 43.3 °F 40.3 °F 29.20 in SW 5.0 mph 9.0 mph 89% 0.00 in 5 W/m2
08:08 43.4 °F 40.4 °F 29.20 in West 6.0 mph 9.0 mph 89% 0.00 in 5 W/m2
08:14 43.4 °F 40.1 °F 29.20 in West 5.0 mph 6.0 mph 88% 0.00 in 5 W/m2
08:20 43.3 °F 40.3 °F 29.22 in WSW 3.0 mph 3.0 mph 89% 0.00 in 9 W/m2
08:26 43.2 °F 40.2 °F 29.22 in West 3.0 mph 3.0 mph 89% 0.04 in 9 W/m2
08:32 43.2 °F 40.5 °F 29.23 in West 3.0 mph 4.0 mph 90% 0.04 in 9 W/m2
08:38 43.2 °F 40.5 °F 29.23 in WSW 4.0 mph 11.0 mph 90% 0.06 in 12 W/m2
08:44 43.2 °F 40.5 °F 29.24 in WSW 5.0 mph 8.0 mph 90% 0.05 in 19 W/m2
08:50 43.2 °F 40.5 °F 29.25 in WSW 4.0 mph 4.0 mph 90% 0.04 in 23 W/m2
08:56 43.3 °F 40.6 °F 29.25 in SW 5.0 mph 8.0 mph 90% 0.04 in 19 W/m2
09:02 43.4 °F 40.4 °F 29.26 in WNW 4.0 mph 5.0 mph 89% 0.04 in 19 W/m2
09:08 43.6 °F 40.3 °F 29.26 in West 5.0 mph 15.0 mph 88% 0.00 in 37 W/m2
09:14 43.8 °F 40.2 °F 29.27 in WSW 5.0 mph 5.0 mph 87% 0.00 in 35 W/m2
09:20 43.9 °F 40.0 °F 29.28 in West 4.0 mph 4.0 mph 86% 0.00 in 46 W/m2
09:26 44.0 °F 39.8 °F 29.28 in WSW 4.0 mph 8.0 mph 85% 0.00 in 47 W/m2
09:32 44.1 °F 39.6 °F 29.28 in West 5.0 mph 5.0 mph 84% 0.00 in 49 W/m2
09:38 44.2 °F 39.4 °F 29.29 in West 4.0 mph 5.0 mph 83% 0.00 in 44 W/m2
09:44 44.2 °F 39.4 °F 29.30 in WSW 4.0 mph 7.0 mph 83% 0.00 in 44 W/m2
09:50 44.4 °F 39.2 °F 29.30 in WSW 5.0 mph 7.0 mph 82% 0.00 in 72 W/m2
09:56 44.4 °F 39.2 °F 29.30 in NNW 5.0 mph 7.0 mph 82% 0.00 in 77 W/m2
10:02 44.5 °F 39.0 °F 29.31 in SW 5.0 mph 5.0 mph 81% 0.00 in 84 W/m2
10:08 44.6 °F 38.8 °F 29.31 in WSW 6.0 mph 7.0 mph 80% 0.00 in 69 W/m2
10:20 44.7 °F 38.9 °F 29.32 in West 5.0 mph 9.0 mph 80% 0.00 in 65 W/m2
10:26 44.7 °F 38.6 °F 29.32 in West 4.0 mph 9.0 mph 79% 0.00 in 90 W/m2
10:32 44.7 °F 38.6 °F 29.33 in WSW 4.0 mph 7.0 mph 79% 0.00 in 70 W/m2
10:38 44.7 °F 38.3 °F 29.34 in West 5.0 mph 13.0 mph 78% 0.00 in 56 W/m2
10:44 44.8 °F 37.7 °F 29.34 in West 7.0 mph 18.0 mph 76% 0.00 in 69 W/m2
10:50 44.8 °F 38.0 °F 29.35 in West 6.0 mph 6.0 mph 77% 0.00 in 53 W/m2
10:56 44.8 °F 37.7 °F 29.36 in SW 5.0 mph 11.0 mph 76% 0.00 in 97 W/m2
11:02 44.8 °F 37.7 °F 29.36 in WNW 4.0 mph 5.0 mph 76% 0.00 in 63 W/m2
11:08 44.9 °F 37.8 °F 29.37 in West 4.0 mph 5.0 mph 76% 0.00 in 72 W/m2
11:14 44.9 °F 37.5 °F 29.37 in WSW 5.0 mph 5.0 mph 75% 0.00 in 69 W/m2
11:20 45.0 °F 37.2 °F 29.38 in WSW 5.0 mph 5.0 mph 74% 0.00 in 86 W/m2
11:26 45.3 °F 36.8 °F 29.38 in WSW 5.0 mph 22.0 mph 72% 0.00 in 179 W/m2
11:32 45.6 °F 37.1 °F 29.39 in WSW 6.0 mph 6.0 mph 72% 0.00 in 109 W/m2
11:38 45.4 °F 36.9 °F 29.39 in WSW 5.0 mph 8.0 mph 72% 0.00 in 77 W/m2
11:56 44.7 °F 36.2 °F 29.41 in WNW 5.0 mph 6.0 mph 72% 0.00 in 42 W/m2
12:02 44.7 °F 36.2 °F 29.42 in WSW 4.0 mph 5.0 mph 72% 0.00 in 54 W/m2
12:14 44.8 °F 36.0 °F 29.42 in WSW 5.0 mph 10.0 mph 71% 0.00 in 105 W/m2
12:20 44.9 °F 35.3 °F 29.42 in NW 6.0 mph 6.0 mph 69% 0.00 in 76 W/m2
12:26 45.0 °F 35.1 °F 29.43 in West 6.0 mph 17.0 mph 68% 0.00 in 98 W/m2
12:44 45.6 °F 35.3 °F 29.43 in NW 6.0 mph 6.0 mph 67% 0.00 in 174 W/m2
12:50 47.2 °F 36.8 °F 29.43 in WSW 5.0 mph 7.0 mph 67% 0.00 in 369 W/m2
12:56 48.0 °F 35.6 °F 29.43 in West 5.0 mph 12.0 mph 62% 0.00 in 197 W/m2
13:03 48.8 °F 35.5 °F 29.43 in WNW 6.0 mph 7.0 mph 60% 0.00 in 612 W/m2
13:08 49.3 °F 33.8 °F 29.43 in WSW 6.0 mph 8.0 mph 55% 0.00 in 631 W/m2
13:20 49.6 °F 34.5 °F 29.43 in West 6.0 mph 6.0 mph 56% 0.00 in 578 W/m2
13:26 49.7 °F 34.6 °F 29.43 in WNW 5.0 mph 10.0 mph 56% 0.00 in 575 W/m2
13:32 50.0 °F 34.0 °F 29.43 in West 5.0 mph 7.0 mph 54% 0.00 in 573 W/m2
13:38 50.5 °F 33.5 °F 29.44 in WNW 6.0 mph 9.0 mph 52% 0.00 in 573 W/m2
13:44 50.4 °F 33.9 °F 29.45 in WNW 5.0 mph 5.0 mph 53% 0.00 in 387 W/m2
13:50 51.0 °F 33.0 °F 29.45 in WSW 5.0 mph 8.0 mph 50% 0.00 in 448 W/m2
13:56 50.3 °F 30.8 °F 29.45 in WNW 6.0 mph 8.0 mph 47% 0.00 in 257 W/m2
14:02 50.8 °F 33.3 °F 29.45 in West 5.0 mph 7.0 mph 51% 0.00 in 612 W/m2
14:08 51.2 °F 32.7 °F 29.44 in WSW 5.0 mph 9.0 mph 49% 0.00 in 529 W/m2
14:14 51.4 °F 31.3 °F 29.44 in SW 5.0 mph 5.0 mph 46% 0.00 in 519 W/m2
14:20 52.2 °F 33.6 °F 29.45 in WNW 5.0 mph 5.0 mph 49% 0.00 in 517 W/m2
14:26 52.1 °F 30.8 °F 29.45 in SW 4.0 mph 9.0 mph 44% 0.00 in 566 W/m2
14:32 51.9 °F 29.5 °F 29.45 in WSW 5.0 mph 9.0 mph 42% 0.00 in 234 W/m2
14:38 51.6 °F 29.8 °F 29.45 in WNW 4.0 mph 10.0 mph 43% 0.00 in 250 W/m2
14:44 52.5 °F 30.6 °F 29.46 in WNW 4.0 mph 6.0 mph 43% 0.00 in 555 W/m2
14:50 53.2 °F 28.9 °F 29.46 in NW 3.0 mph 4.0 mph 39% 0.00 in 211 W/m2
14:56 51.6 °F 28.0 °F 29.47 in WNW 4.0 mph 5.0 mph 40% 0.00 in 46 W/m2
15:08 50.2 °F 30.7 °F 29.47 in West 4.0 mph 6.0 mph 47% 0.00 in 35 W/m2
15:14 50.0 °F 31.1 °F 29.47 in WNW 3.0 mph 4.0 mph 48% 0.00 in 33 W/m2
15:20 49.8 °F 31.9 °F 29.47 in WSW 2.0 mph 4.0 mph 50% 0.00 in 32 W/m2
15:26 49.7 °F 32.8 °F 29.47 in WSW 3.0 mph 4.0 mph 52% 0.00 in 35 W/m2
15:32 49.6 °F 33.2 °F 29.48 in West 3.0 mph 5.0 mph 53% 0.00 in 23 W/m2
15:38 49.4 °F 33.9 °F 29.48 in WSW 4.0 mph 5.0 mph 55% 0.00 in 19 W/m2
15:44 49.3 °F 34.3 °F 29.50 in SW 4.0 mph 8.0 mph 56% 0.00 in 7 W/m2
15:56 49.1 °F 35.8 °F 29.50 in West 4.0 mph 5.0 mph 60% 0.00 in 12 W/m2
16:02 49.0 °F 36.1 °F 29.50 in WSW 5.0 mph 6.0 mph 61% 0.00 in 18 W/m2
16:08 48.9 °F 36.0 °F 29.51 in West 4.0 mph 8.0 mph 61% 0.00 in 18 W/m2
16:14 48.8 °F 35.1 °F 29.51 in West 5.0 mph 5.0 mph 59% 0.00 in 12 W/m2
16:20 48.8 °F 35.5 °F 29.51 in West 5.0 mph 5.0 mph 60% 0.00 in 16 W/m2
16:26 48.8 °F 35.1 °F 29.51 in WSW 5.0 mph 6.0 mph 59% 0.00 in 16 W/m2
16:32 48.7 °F 35.8 °F 29.51 in SW 4.0 mph 4.0 mph 61% 0.00 in 14 W/m2
16:38 48.6 °F 35.7 °F 29.51 in WSW 3.0 mph 4.0 mph 61% 0.00 in 14 W/m2
16:44 48.5 °F 36.1 °F 29.52 in SW 2.0 mph 2.0 mph 62% 0.00 in 14 W/m2
16:50 48.5 °F 36.1 °F 29.52 in WSW 2.0 mph 3.0 mph 62% 0.00 in 11 W/m2
16:56 48.5 °F 35.7 °F 29.52 in WSW 3.0 mph 3.0 mph 61% 0.00 in 12 W/m2
17:02 48.4 °F 36.0 °F 29.52 in WSW 3.0 mph 5.0 mph 62% 0.00 in 11 W/m2
17:08 48.3 °F 35.9 °F 29.52 in South 2.0 mph 5.0 mph 62% 0.00 in 12 W/m2
17:14 48.3 °F 35.9 °F 29.52 in South 2.0 mph 3.0 mph 62% 0.00 in 7 W/m2
17:20 48.3 °F 35.9 °F 29.53 in SW 2.0 mph 2.0 mph 62% 0.00 in 5 W/m2
17:26 48.2 °F 36.2 °F 29.53 in SW 2.0 mph 2.0 mph 63% 0.00 in 7 W/m2
17:32 48.1 °F 36.5 °F 29.52 in SW 1.0 mph 3.0 mph 64% 0.00 in 5 W/m2
17:38 48.0 °F 36.4 °F 29.52 in SSW 2.0 mph 3.0 mph 64% 0.00 in 0 W/m2
17:44 48.1 °F 36.1 °F 29.53 in South 2.0 mph 5.0 mph 63% 0.00 in 0 W/m2
17:50 48.4 °F 36.0 °F 29.53 in SSW 2.0 mph 3.0 mph 62% 0.00 in 0 W/m2
17:56 48.8 °F 35.1 °F 29.53 in SW 3.0 mph 4.0 mph 59% 0.00 in 0 W/m2
18:02 49.4 °F 32.5 °F 29.52 in SW 5.0 mph 10.0 mph 52% 0.00 in 0 W/m2
18:08 49.7 °F 32.3 °F 29.53 in SW 7.0 mph 12.0 mph 51% 0.00 in 0 W/m2
18:14 49.9 °F 32.5 °F 29.53 in SW 6.0 mph 8.0 mph 51% 0.00 in 0 W/m2
18:20 49.9 °F 32.0 °F 29.53 in SSW 7.0 mph 7.0 mph 50% 0.00 in 0 W/m2
18:26 49.8 °F 32.4 °F 29.53 in SW 6.0 mph 7.0 mph 51% 0.00 in 0 W/m2
18:32 49.8 °F 32.9 °F 29.54 in NNE 6.0 mph 7.0 mph 52% 0.00 in 0 W/m2
18:38 49.7 °F 33.7 °F 29.54 in WSW 6.0 mph 14.0 mph 54% 0.00 in 0 W/m2
18:44 49.4 °F 34.3 °F 29.55 in South 7.0 mph 11.0 mph 56% 0.00 in 0 W/m2
18:50 48.8 °F 35.1 °F 29.56 in SSW 7.0 mph 7.0 mph 59% 0.00 in 0 W/m2
18:56 48.3 °F 35.5 °F 29.56 in SW 6.0 mph 10.0 mph 61% 0.00 in 0 W/m2
19:02 47.9 °F 35.5 °F 29.56 in WSW 6.0 mph 8.0 mph 62% 0.00 in 0 W/m2
19:08 47.9 °F 35.5 °F 29.57 in WNW 5.0 mph 10.0 mph 62% 0.00 in 0 W/m2
19:14 47.8 °F 35.8 °F 29.57 in SSW 5.0 mph 5.0 mph 63% 0.00 in 0 W/m2
19:20 47.6 °F 35.6 °F 29.57 in SW 5.0 mph 5.0 mph 63% 0.00 in 0 W/m2
19:26 47.4 °F 35.8 °F 29.58 in South 4.0 mph 5.0 mph 64% 0.00 in 0 W/m2
19:32 47.3 °F 36.1 °F 29.59 in SW 3.0 mph 5.0 mph 65% 0.00 in 0 W/m2
19:38 47.1 °F 36.3 °F 29.59 in South 6.0 mph 12.0 mph 66% 0.00 in 0 W/m2
19:44 47.0 °F 36.6 °F 29.59 in SSW 6.0 mph 8.0 mph 67% 0.00 in 0 W/m2
19:50 46.8 °F 36.4 °F 29.59 in West 5.0 mph 5.0 mph 67% 0.00 in 0 W/m2
19:56 46.6 °F 37.0 °F 29.60 in SW 5.0 mph 9.0 mph 69% 0.00 in 0 W/m2
20:02 46.4 °F 37.1 °F 29.60 in WSW 6.0 mph 8.0 mph 70% 0.00 in 0 W/m2
20:08 46.0 °F 37.1 °F 29.60 in West 6.0 mph 11.0 mph 71% 0.00 in 0 W/m2
20:14 45.6 °F 37.4 °F 29.61 in SSW 6.0 mph 6.0 mph 73% 0.00 in 0 W/m2
20:20 45.1 °F 38.0 °F 29.62 in WSW 5.0 mph 6.0 mph 76% 0.00 in 0 W/m2
20:26 44.7 °F 37.9 °F 29.62 in SW 5.0 mph 10.0 mph 77% 0.00 in 0 W/m2
20:32 44.3 °F 37.9 °F 29.62 in SW 6.0 mph 13.0 mph 78% 0.04 in 0 W/m2
20:38 44.1 °F 38.3 °F 29.62 in SW 7.0 mph 13.0 mph 80% 0.04 in 0 W/m2
20:44 43.8 °F 38.0 °F 29.63 in SSW 6.0 mph 8.0 mph 80% 0.04 in 0 W/m2
20:50 43.7 °F 38.3 °F 29.63 in WSW 6.0 mph 6.0 mph 81% 0.00 in 0 W/m2
20:56 43.7 °F 38.3 °F 29.63 in SSW 5.0 mph 6.0 mph 81% 0.00 in 0 W/m2
21:02 43.5 °F 38.4 °F 29.64 in SSW 4.0 mph 5.0 mph 82% 0.00 in 0 W/m2
21:08 43.5 °F 38.4 °F 29.64 in WSW 4.0 mph 9.0 mph 82% 0.00 in 0 W/m2
21:14 43.5 °F 38.4 °F 29.64 in SSW 5.0 mph 10.0 mph 82% 0.00 in 0 W/m2
21:20 43.6 °F 38.5 °F 29.64 in SW 5.0 mph 5.0 mph 82% 0.00 in 0 W/m2
21:26 43.5 °F 38.4 °F 29.65 in West 3.0 mph 5.0 mph 82% 0.00 in 0 W/m2
21:38 43.5 °F 38.4 °F 29.65 in SSW 4.0 mph 6.0 mph 82% 0.00 in 0 W/m2
21:44 43.6 °F 38.2 °F 29.65 in SW 5.0 mph 8.0 mph 81% 0.00 in 0 W/m2
21:50 43.6 °F 38.5 °F 29.65 in SW 4.0 mph 5.0 mph 82% 0.00 in 0 W/m2
21:56 43.7 °F 38.3 °F 29.65 in SW 4.0 mph 8.0 mph 81% 0.00 in 0 W/m2
22:02 43.8 °F 38.3 °F 29.65 in SW 4.0 mph 6.0 mph 81% 0.00 in 0 W/m2
22:08 43.9 °F 38.1 °F 29.66 in SW 5.0 mph 11.0 mph 80% 0.00 in 0 W/m2
22:14 44.0 °F 37.9 °F 29.66 in West 5.0 mph 10.0 mph 79% 0.00 in 0 W/m2
22:20 44.2 °F 37.8 °F 29.67 in SSW 5.0 mph 5.0 mph 78% 0.00 in 0 W/m2
22:26 44.3 °F 37.9 °F 29.67 in SW 4.0 mph 5.0 mph 78% 0.00 in 0 W/m2
22:32 44.4 °F 37.6 °F 29.67 in SW 3.0 mph 7.0 mph 77% 0.00 in 0 W/m2
22:38 44.5 °F 37.7 °F 29.67 in SW 4.0 mph 7.0 mph 77% 0.00 in 0 W/m2
22:44 44.6 °F 37.5 °F 29.67 in SW 4.0 mph 5.0 mph 76% 0.00 in 0 W/m2
22:50 44.7 °F 37.6 °F 29.67 in SSW 4.0 mph 5.0 mph 76% 0.00 in 0 W/m2
22:56 44.8 °F 37.4 °F 29.67 in SW 5.0 mph 5.0 mph 75% 0.00 in 0 W/m2
23:02 44.9 °F 37.1 °F 29.67 in SSW 5.0 mph 9.0 mph 74% 0.00 in 0 W/m2
23:24 45.1 °F 36.6 °F 29.68 in WSW 7.0 mph 7.0 mph 72% 0.00 in 0 W/m2
23:30 45.1 °F 36.6 °F 29.68 in SW 5.0 mph 5.0 mph 72% 0.00 in 0 W/m2
23:34 45.1 °F 36.6 °F 29.68 in SSW 5.0 mph 11.0 mph 72% 0.00 in 0 W/m2
23:38 45.2 °F 36.7 °F 29.68 in South 6.0 mph 11.0 mph 72% 0.00 in 0 W/m2
23:40 45.2 °F 36.4 °F 29.68 in SW 6.0 mph 6.0 mph 71% 0.00 in 0 W/m2
23:44 45.2 °F 36.4 °F 29.68 in West 6.0 mph 6.0 mph 71% 0.00 in 0 W/m2
23:50 45.1 °F 36.6 °F 29.68 in WSW 5.0 mph 5.0 mph 72% 0.00 in 0 W/m2
23:56 44.6 °F 36.8 °F 29.69 in WSW 7.0 mph 10.0 mph 74% 0.00 in 0 W/m2
Country Meadow, Clay, NY, USA
Compliments of Weather Underground - 2 mb